KLM93W EHAM-LIPZ
Flight info
| Callsign | KLM93W |
|---|---|
| Flight time | 1h 26m |
| Altitude | 35000 |
| Route | EDUPO Z739 MISGO DCT ASBON DCT TUSUK DCT ULNOK L607 ABUKA DCT TEDGO DCT BATUB DCT ADOSA L612 ALBET |
| Aircraft | A21N/M-SDE2E3FGHIRWXY/LB1 |
Departure
| Time | 2026-05-06 14:24 |
|---|---|
| Airport | Amsterdam Airport Schiphol (EHAM) |
Arrival
| Time | 2026-05-06 15:50 |
|---|---|
| Airport | Venice Marco Polo Airport (LIPZ) |
| Time | Latitude | Longitude | Altitude | Speed | Heading |
|---|---|---|---|---|---|
| 2026-05-06 13:59 | 52.30709 | 4.77155 | 32 ft | 0 kts | 3° |
| 2026-05-06 14:13 | 52.30700 | 4.77155 | 4 ft | 4 kts | 5° |
| 2026-05-06 14:14 | 52.30674 | 4.77147 | 4 ft | 4 kts | 20° |
| 2026-05-06 14:14 | 52.30654 | 4.77126 | 4 ft | 4 kts | 62° |
| 2026-05-06 14:14 | 52.30650 | 4.77107 | 4 ft | 0 kts | 93° |
| 2026-05-06 14:16 | 52.30650 | 4.77111 | 4 ft | 1 kts | 93° |
| 2026-05-06 14:16 | 52.30648 | 4.77147 | 4 ft | 5 kts | 95° |
| 2026-05-06 14:16 | 52.30643 | 4.77230 | 4 ft | 9 kts | 105° |
| 2026-05-06 14:17 | 52.30582 | 4.77283 | 4 ft | 10 kts | 203° |
| 2026-05-06 14:17 | 52.30541 | 4.77165 | 4 ft | 14 kts | 242° |
| 2026-05-06 14:17 | 52.30482 | 4.77006 | 4 ft | 18 kts | 238° |
| 2026-05-06 14:17 | 52.30407 | 4.76811 | 4 ft | 22 kts | 237° |
| 2026-05-06 14:18 | 52.30318 | 4.76578 | 4 ft | 26 kts | 239° |
| 2026-05-06 14:18 | 52.30216 | 4.76318 | 4 ft | 28 kts | 237° |
| 2026-05-06 14:18 | 52.30113 | 4.76046 | 4 ft | 28 kts | 238° |
| 2026-05-06 14:18 | 52.30010 | 4.75776 | 4 ft | 28 kts | 237° |
| 2026-05-06 14:19 | 52.29907 | 4.75509 | 4 ft | 28 kts | 239° |
| 2026-05-06 14:19 | 52.29830 | 4.75301 | 4 ft | 20 kts | 257° |
| 2026-05-06 14:19 | 52.29890 | 4.75110 | 5 ft | 21 kts | 311° |
| 2026-05-06 14:19 | 52.29985 | 4.74927 | 5 ft | 22 kts | 311° |
| 2026-05-06 14:20 | 52.30088 | 4.74739 | 8 ft | 23 kts | 313° |
| 2026-05-06 14:20 | 52.30188 | 4.74553 | 15 ft | 19 kts | 309° |
| 2026-05-06 14:20 | 52.30269 | 4.74403 | 15 ft | 14 kts | 313° |
| 2026-05-06 14:20 | 52.30322 | 4.74302 | 6 ft | 9 kts | 310° |
| 2026-05-06 14:21 | 52.30351 | 4.74248 | 4 ft | 0 kts | 310° |
| 2026-05-06 14:21 | 52.30353 | 4.74245 | 4 ft | 2 kts | 310° |
| 2026-05-06 14:21 | 52.30385 | 4.74182 | 4 ft | 12 kts | 311° |
| 2026-05-06 14:22 | 52.30422 | 4.74029 | 4 ft | 17 kts | 243° |
| 2026-05-06 14:22 | 52.30409 | 4.73836 | 3 ft | 18 kts | 279° |
| 2026-05-06 14:22 | 52.30488 | 4.73764 | 3 ft | 14 kts | 4° |
| 2026-05-06 14:22 | 52.30622 | 4.73777 | 2 ft | 19 kts | 1° |
| 2026-05-06 14:23 | 52.30655 | 4.73779 | 3 ft | 0 kts | 359° |
| 2026-05-06 14:23 | 52.30669 | 4.73779 | 3 ft | 6 kts | 358° |
| 2026-05-06 14:23 | 52.30912 | 4.73805 | 4 ft | 78 kts | 3° |
| 2026-05-06 14:23 | 52.31746 | 4.73881 | 4 ft | 158 kts | 4° |
| 2026-05-06 14:24 | 52.32934 | 4.73964 | 571 ft | 174 kts | 4° |
| 2026-05-06 14:24 | 52.34123 | 4.74204 | 1507 ft | 178 kts | 17° |
| 2026-05-06 14:24 | 52.35287 | 4.75074 | 2070 ft | 191 kts | 27° |
| 2026-05-06 14:24 | 52.36540 | 4.76004 | 2576 ft | 207 kts | 25° |
| 2026-05-06 14:25 | 52.37894 | 4.77110 | 2986 ft | 228 kts | 35° |
| 2026-05-06 14:25 | 52.38997 | 4.79045 | 3512 ft | 241 kts | 62° |
| 2026-05-06 14:25 | 52.39392 | 4.81723 | 4255 ft | 249 kts | 90° |
| 2026-05-06 14:25 | 52.39006 | 4.84509 | 5056 ft | 256 kts | 108° |
| 2026-05-06 14:26 | 52.38365 | 4.87258 | 5825 ft | 260 kts | 109° |
| 2026-05-06 14:26 | 52.37713 | 4.90045 | 6569 ft | 265 kts | 109° |
| 2026-05-06 14:26 | 52.37062 | 4.92886 | 7294 ft | 269 kts | 107° |
| 2026-05-06 14:26 | 52.36411 | 4.95792 | 8015 ft | 275 kts | 108° |
| 2026-05-06 14:27 | 52.35749 | 4.98763 | 8767 ft | 280 kts | 108° |
| 2026-05-06 14:27 | 52.35083 | 5.01779 | 9538 ft | 285 kts | 108° |
| 2026-05-06 14:27 | 52.34402 | 5.04874 | 10136 ft | 296 kts | 108° |
| 2026-05-06 14:27 | 52.33653 | 5.08127 | 10453 ft | 316 kts | 112° |
| 2026-05-06 14:28 | 52.32489 | 5.11293 | 10733 ft | 337 kts | 129° |
| 2026-05-06 14:28 | 52.30872 | 5.14217 | 11019 ft | 356 kts | 133° |
| 2026-05-06 14:28 | 52.29141 | 5.17238 | 11342 ft | 371 kts | 133° |
| 2026-05-06 14:28 | 52.27373 | 5.20370 | 11867 ft | 378 kts | 132° |
| 2026-05-06 14:29 | 52.25591 | 5.23561 | 12514 ft | 383 kts | 132° |
| 2026-05-06 14:29 | 52.23876 | 5.26908 | 13129 ft | 387 kts | 126° |
| 2026-05-06 14:29 | 52.22298 | 5.30503 | 13715 ft | 392 kts | 126° |
| 2026-05-06 14:29 | 52.20715 | 5.34164 | 14232 ft | 397 kts | 125° |
| 2026-05-06 14:30 | 52.19121 | 5.37851 | 14819 ft | 399 kts | 126° |
| 2026-05-06 14:30 | 52.17520 | 5.41545 | 15422 ft | 399 kts | 126° |
| 2026-05-06 14:30 | 52.15911 | 5.45243 | 16004 ft | 401 kts | 126° |
| 2026-05-06 14:30 | 52.14294 | 5.48951 | 16515 ft | 403 kts | 126° |
| 2026-05-06 14:31 | 52.12665 | 5.52679 | 17051 ft | 405 kts | 127° |
| 2026-05-06 14:31 | 52.11025 | 5.56422 | 17603 ft | 407 kts | 127° |
| 2026-05-06 14:31 | 52.09382 | 5.60173 | 18144 ft | 408 kts | 127° |
| 2026-05-06 14:31 | 52.07729 | 5.63940 | 18589 ft | 410 kts | 127° |
| 2026-05-06 14:32 | 52.06037 | 5.67682 | 18998 ft | 412 kts | 130° |
| 2026-05-06 14:32 | 52.04182 | 5.71238 | 19385 ft | 414 kts | 132° |
| 2026-05-06 14:32 | 52.02284 | 5.74769 | 19745 ft | 416 kts | 133° |
| 2026-05-06 14:32 | 52.00397 | 5.78273 | 20079 ft | 419 kts | 133° |
| 2026-05-06 14:33 | 51.98475 | 5.81838 | 20409 ft | 421 kts | 133° |
| 2026-05-06 14:33 | 51.96550 | 5.85427 | 20703 ft | 423 kts | 132° |
| 2026-05-06 14:33 | 51.94619 | 5.89038 | 20972 ft | 425 kts | 132° |
| 2026-05-06 14:33 | 51.92673 | 5.92675 | 21241 ft | 428 kts | 132° |
| 2026-05-06 14:34 | 51.90718 | 5.96312 | 21512 ft | 429 kts | 132° |
| 2026-05-06 14:34 | 51.88751 | 5.99969 | 21723 ft | 432 kts | 132° |
| 2026-05-06 14:34 | 51.86777 | 6.03644 | 21955 ft | 434 kts | 132° |
| 2026-05-06 14:34 | 51.84786 | 6.07341 | 22180 ft | 437 kts | 133° |
| 2026-05-06 14:35 | 51.82777 | 6.11038 | 22437 ft | 438 kts | 133° |
| 2026-05-06 14:35 | 51.80758 | 6.14737 | 22707 ft | 440 kts | 133° |
| 2026-05-06 14:35 | 51.78729 | 6.18453 | 22973 ft | 441 kts | 132° |
| 2026-05-06 14:35 | 51.76698 | 6.22170 | 23251 ft | 443 kts | 132° |
| 2026-05-06 14:36 | 51.74654 | 6.25912 | 23495 ft | 445 kts | 133° |
| 2026-05-06 14:36 | 51.72598 | 6.29660 | 23704 ft | 447 kts | 133° |
| 2026-05-06 14:36 | 51.70536 | 6.33409 | 23985 ft | 447 kts | 133° |
| 2026-05-06 14:36 | 51.68477 | 6.37150 | 24290 ft | 446 kts | 133° |
| 2026-05-06 14:37 | 51.66409 | 6.40895 | 24546 ft | 447 kts | 132° |
| 2026-05-06 14:37 | 51.64345 | 6.44634 | 24794 ft | 447 kts | 133° |
| 2026-05-06 14:37 | 51.62279 | 6.48381 | 25029 ft | 448 kts | 132° |
| 2026-05-06 14:37 | 51.60210 | 6.52129 | 25254 ft | 449 kts | 132° |
| 2026-05-06 14:38 | 51.58134 | 6.55887 | 25464 ft | 450 kts | 133° |
| 2026-05-06 14:38 | 51.56041 | 6.59654 | 25670 ft | 451 kts | 133° |
| 2026-05-06 14:38 | 51.53949 | 6.63412 | 25897 ft | 452 kts | 133° |
| 2026-05-06 14:38 | 51.51849 | 6.67180 | 26125 ft | 453 kts | 133° |
| 2026-05-06 14:39 | 51.49745 | 6.70951 | 26338 ft | 455 kts | 133° |
| 2026-05-06 14:39 | 51.47635 | 6.74731 | 26553 ft | 454 kts | 133° |
| 2026-05-06 14:39 | 51.45531 | 6.78501 | 26748 ft | 454 kts | 133° |
| 2026-05-06 14:39 | 51.43425 | 6.82268 | 26908 ft | 454 kts | 133° |
| 2026-05-06 14:40 | 51.41287 | 6.85998 | 27049 ft | 454 kts | 136° |
| 2026-05-06 14:40 | 51.38862 | 6.89225 | 27175 ft | 453 kts | 146° |
| 2026-05-06 14:40 | 51.36214 | 6.91961 | 27318 ft | 454 kts | 148° |
| 2026-05-06 14:40 | 51.33564 | 6.94585 | 27483 ft | 454 kts | 149° |
| 2026-05-06 14:41 | 51.30847 | 6.97281 | 27667 ft | 453 kts | 149° |
| 2026-05-06 14:41 | 51.28175 | 6.99948 | 27857 ft | 453 kts | 148° |
| 2026-05-06 14:41 | 51.25546 | 7.02582 | 28050 ft | 452 kts | 148° |
| 2026-05-06 14:41 | 51.22889 | 7.05243 | 28264 ft | 450 kts | 149° |
| 2026-05-06 14:42 | 51.20242 | 7.07889 | 28500 ft | 449 kts | 149° |
| 2026-05-06 14:42 | 51.17597 | 7.10533 | 28695 ft | 447 kts | 149° |
| 2026-05-06 14:42 | 51.14962 | 7.13161 | 28867 ft | 446 kts | 149° |
| 2026-05-06 14:42 | 51.12335 | 7.15780 | 29024 ft | 447 kts | 148° |
| 2026-05-06 14:43 | 51.07058 | 7.21035 | 29219 ft | 448 kts | 148° |
| 2026-05-06 14:43 | 51.04409 | 7.23666 | 29374 ft | 448 kts | 148° |
| 2026-05-06 14:43 | 51.01765 | 7.26286 | 29513 ft | 449 kts | 148° |
| 2026-05-06 14:44 | 50.99116 | 7.28911 | 29711 ft | 448 kts | 148° |
| 2026-05-06 14:44 | 50.96470 | 7.31527 | 29918 ft | 447 kts | 148° |
| 2026-05-06 14:44 | 50.93834 | 7.34132 | 30108 ft | 446 kts | 148° |
| 2026-05-06 14:45 | 50.88572 | 7.39313 | 30446 ft | 445 kts | 149° |
| 2026-05-06 14:45 | 50.86875 | 7.40982 | 30548 ft | 445 kts | 149° |
| 2026-05-06 14:45 | 50.84251 | 7.43559 | 30694 ft | 445 kts | 149° |
| 2026-05-06 14:45 | 50.81623 | 7.46139 | 30827 ft | 444 kts | 149° |
| 2026-05-06 14:46 | 50.78999 | 7.48710 | 30925 ft | 445 kts | 149° |
| 2026-05-06 14:46 | 50.76367 | 7.51284 | 31035 ft | 445 kts | 150° |
| 2026-05-06 14:46 | 50.73732 | 7.53858 | 31182 ft | 445 kts | 150° |
| 2026-05-06 14:46 | 50.71126 | 7.56481 | 31316 ft | 445 kts | 148° |
| 2026-05-06 14:47 | 50.68542 | 7.59166 | 31473 ft | 445 kts | 149° |
| 2026-05-06 14:47 | 50.65958 | 7.61848 | 31617 ft | 444 kts | 149° |
| 2026-05-06 14:47 | 50.63379 | 7.64519 | 31753 ft | 444 kts | 149° |
| 2026-05-06 14:47 | 50.60794 | 7.67192 | 31919 ft | 443 kts | 150° |
| 2026-05-06 14:48 | 50.58221 | 7.69847 | 32095 ft | 442 kts | 150° |
| 2026-05-06 14:48 | 50.55648 | 7.72501 | 32244 ft | 442 kts | 150° |
| 2026-05-06 14:48 | 50.53083 | 7.75142 | 32366 ft | 441 kts | 150° |
| 2026-05-06 14:48 | 50.50516 | 7.77783 | 32496 ft | 441 kts | 150° |
| 2026-05-06 14:49 | 50.47950 | 7.80416 | 32625 ft | 441 kts | 150° |
| 2026-05-06 14:49 | 50.45383 | 7.83047 | 32737 ft | 440 kts | 150° |
| 2026-05-06 14:49 | 50.42854 | 7.85635 | 32850 ft | 440 kts | 150° |
| 2026-05-06 14:50 | 50.37728 | 7.90877 | 33088 ft | 438 kts | 150° |
| 2026-05-06 14:50 | 50.35184 | 7.93473 | 33276 ft | 436 kts | 150° |
| 2026-05-06 14:50 | 50.32646 | 7.96060 | 33409 ft | 434 kts | 150° |
| 2026-05-06 14:50 | 50.30122 | 7.98628 | 33522 ft | 433 kts | 150° |
| 2026-05-06 14:51 | 50.27594 | 8.01198 | 33606 ft | 433 kts | 150° |
| 2026-05-06 14:51 | 50.22543 | 8.06320 | 33737 ft | 433 kts | 150° |
| 2026-05-06 14:52 | 50.17487 | 8.11433 | 33836 ft | 433 kts | 150° |
| 2026-05-06 14:52 | 50.12403 | 8.16472 | 33932 ft | 432 kts | 152° |
| 2026-05-06 14:53 | 50.07240 | 8.21268 | 34033 ft | 433 kts | 152° |
| 2026-05-06 14:53 | 50.02904 | 8.25276 | 34096 ft | 433 kts | 153° |
| 2026-05-06 14:54 | 49.96869 | 8.30848 | 34185 ft | 435 kts | 153° |
| 2026-05-06 14:54 | 49.91661 | 8.35645 | 34296 ft | 435 kts | 153° |
| 2026-05-06 14:55 | 49.87335 | 8.39619 | 34389 ft | 435 kts | 153° |
| 2026-05-06 14:55 | 49.82392 | 8.45097 | 34483 ft | 437 kts | 151° |
| 2026-05-06 14:56 | 49.76896 | 8.48863 | 34578 ft | 431 kts | 162° |
| 2026-05-06 14:56 | 49.71359 | 8.52394 | 34690 ft | 431 kts | 160° |
| 2026-05-06 14:57 | 49.65873 | 8.56127 | 34773 ft | 431 kts | 159° |
| 2026-05-06 14:57 | 49.60383 | 8.59894 | 34766 ft | 432 kts | 159° |
| 2026-05-06 14:58 | 49.54890 | 8.63654 | 34761 ft | 432 kts | 159° |
| 2026-05-06 14:58 | 49.49400 | 8.67397 | 34762 ft | 431 kts | 159° |
| 2026-05-06 14:59 | 49.44957 | 8.70420 | 34761 ft | 432 kts | 159° |
| 2026-05-06 14:59 | 49.40655 | 8.73341 | 34749 ft | 432 kts | 159° |
| 2026-05-06 15:00 | 49.35162 | 8.77138 | 34762 ft | 436 kts | 154° |
| 2026-05-06 15:00 | 49.30222 | 8.82556 | 34768 ft | 439 kts | 144° |
| 2026-05-06 15:01 | 49.25537 | 8.88595 | 34779 ft | 441 kts | 143° |
| 2026-05-06 15:01 | 49.20948 | 8.94702 | 34770 ft | 435 kts | 143° |
| 2026-05-06 15:02 | 49.16397 | 9.00865 | 34779 ft | 438 kts | 143° |
| 2026-05-06 15:02 | 49.11844 | 9.07022 | 34782 ft | 436 kts | 143° |
| 2026-05-06 15:03 | 49.07254 | 9.13110 | 34788 ft | 437 kts | 145° |
| 2026-05-06 15:03 | 49.02565 | 9.18982 | 34785 ft | 432 kts | 148° |
| 2026-05-06 15:03 | 49.00018 | 9.21309 | 34787 ft | 425 kts | 160° |
| 2026-05-06 15:04 | 48.97237 | 9.22685 | 34857 ft | 416 kts | 173° |
| 2026-05-06 15:04 | 48.94393 | 9.23131 | 35131 ft | 406 kts | 181° |
| 2026-05-06 15:04 | 48.91600 | 9.23229 | 35455 ft | 400 kts | 180° |
| 2026-05-06 15:04 | 48.88848 | 9.23951 | 35427 ft | 407 kts | 167° |
| 2026-05-06 15:05 | 48.86166 | 9.25487 | 35263 ft | 418 kts | 159° |
| 2026-05-06 15:05 | 48.84147 | 9.27205 | 35094 ft | 426 kts | 152° |
| 2026-05-06 15:05 | 48.82341 | 9.29060 | 34933 ft | 429 kts | 150° |
| 2026-05-06 15:05 | 48.80231 | 9.31385 | 34786 ft | 430 kts | 149° |
| 2026-05-06 15:06 | 48.78844 | 9.32950 | 34764 ft | 431 kts | 149° |
| 2026-05-06 15:06 | 48.74041 | 9.38429 | 34781 ft | 432 kts | 148° |
| 2026-05-06 15:07 | 48.69243 | 9.43910 | 34788 ft | 432 kts | 148° |
| 2026-05-06 15:07 | 48.64430 | 9.49389 | 34791 ft | 433 kts | 148° |
| 2026-05-06 15:08 | 48.59608 | 9.54865 | 34791 ft | 434 kts | 148° |
| 2026-05-06 15:08 | 48.54800 | 9.60332 | 34768 ft | 431 kts | 148° |
| 2026-05-06 15:09 | 48.50027 | 9.65786 | 34783 ft | 431 kts | 148° |
| 2026-05-06 15:09 | 48.45241 | 9.71248 | 34773 ft | 430 kts | 148° |
| 2026-05-06 15:10 | 48.40462 | 9.76697 | 34774 ft | 432 kts | 148° |
| 2026-05-06 15:10 | 48.35620 | 9.81967 | 34756 ft | 425 kts | 156° |
| 2026-05-06 15:10 | 48.32922 | 9.83676 | 34753 ft | 418 kts | 168° |
| 2026-05-06 15:11 | 48.30089 | 9.84501 | 34763 ft | 413 kts | 176° |
| 2026-05-06 15:11 | 48.24398 | 9.85037 | 34744 ft | 409 kts | 183° |
| 2026-05-06 15:12 | 48.18695 | 9.84894 | 34755 ft | 411 kts | 185° |
| 2026-05-06 15:12 | 48.13021 | 9.84696 | 34703 ft | 403 kts | 185° |
| 2026-05-06 15:12 | 48.10236 | 9.84609 | 33993 ft | 400 kts | 185° |
| 2026-05-06 15:13 | 48.07466 | 9.84565 | 33304 ft | 398 kts | 185° |
| 2026-05-06 15:13 | 48.04694 | 9.84536 | 32920 ft | 399 kts | 185° |
| 2026-05-06 15:13 | 48.01908 | 9.84505 | 32796 ft | 400 kts | 185° |
| 2026-05-06 15:14 | 47.96338 | 9.84460 | 32783 ft | 401 kts | 185° |
| 2026-05-06 15:14 | 47.90753 | 9.84431 | 32801 ft | 401 kts | 185° |
| 2026-05-06 15:15 | 47.85165 | 9.84404 | 32816 ft | 402 kts | 185° |
| 2026-05-06 15:15 | 47.79574 | 9.84377 | 32837 ft | 401 kts | 185° |
| 2026-05-06 15:16 | 47.73983 | 9.84398 | 32850 ft | 403 kts | 184° |
| 2026-05-06 15:16 | 47.68393 | 9.84568 | 32843 ft | 406 kts | 179° |
| 2026-05-06 15:16 | 47.65617 | 9.85571 | 32848 ft | 417 kts | 166° |
| 2026-05-06 15:17 | 47.62924 | 9.87220 | 32853 ft | 419 kts | 163° |
| 2026-05-06 15:17 | 47.57567 | 9.90617 | 32839 ft | 418 kts | 164° |
| 2026-05-06 15:18 | 47.52223 | 9.93867 | 32852 ft | 419 kts | 165° |
| 2026-05-06 15:18 | 47.46839 | 9.97107 | 32858 ft | 417 kts | 165° |
| 2026-05-06 15:19 | 47.41451 | 10.00333 | 32856 ft | 418 kts | 165° |
| 2026-05-06 15:19 | 47.36051 | 10.03565 | 32843 ft | 421 kts | 165° |
| 2026-05-06 15:20 | 47.30673 | 10.06781 | 32864 ft | 417 kts | 165° |
| 2026-05-06 15:20 | 47.25303 | 10.09961 | 32857 ft | 416 kts | 165° |
| 2026-05-06 15:21 | 47.19901 | 10.13166 | 32847 ft | 416 kts | 165° |
| 2026-05-06 15:21 | 47.14593 | 10.16313 | 32852 ft | 415 kts | 165° |
| 2026-05-06 15:22 | 47.09237 | 10.19486 | 32846 ft | 414 kts | 165° |
| 2026-05-06 15:22 | 47.03886 | 10.22646 | 32859 ft | 415 kts | 165° |
| 2026-05-06 15:23 | 46.98522 | 10.25798 | 32838 ft | 416 kts | 166° |
| 2026-05-06 15:23 | 46.93155 | 10.28953 | 32825 ft | 417 kts | 166° |
| 2026-05-06 15:24 | 46.87806 | 10.32094 | 32842 ft | 413 kts | 166° |
| 2026-05-06 15:24 | 46.82452 | 10.35226 | 32834 ft | 416 kts | 166° |
| 2026-05-06 15:25 | 46.77098 | 10.38353 | 32870 ft | 415 kts | 166° |
| 2026-05-06 15:25 | 46.71745 | 10.41472 | 32861 ft | 414 kts | 166° |
| 2026-05-06 15:26 | 46.66404 | 10.44579 | 32861 ft | 413 kts | 167° |
| 2026-05-06 15:26 | 46.61063 | 10.47677 | 32875 ft | 414 kts | 167° |
| 2026-05-06 15:27 | 46.55718 | 10.50772 | 32884 ft | 414 kts | 167° |
| 2026-05-06 15:27 | 46.50369 | 10.53862 | 32856 ft | 415 kts | 166° |
| 2026-05-06 15:28 | 46.45022 | 10.56949 | 32893 ft | 410 kts | 167° |
| 2026-05-06 15:28 | 46.39721 | 10.59997 | 32827 ft | 404 kts | 167° |
| 2026-05-06 15:28 | 46.37165 | 10.61466 | 32481 ft | 406 kts | 167° |
| 2026-05-06 15:29 | 46.34478 | 10.63003 | 32202 ft | 407 kts | 167° |
| 2026-05-06 15:29 | 46.31847 | 10.64512 | 31741 ft | 405 kts | 167° |
| 2026-05-06 15:29 | 46.29243 | 10.66007 | 31112 ft | 402 kts | 167° |
| 2026-05-06 15:29 | 46.26642 | 10.67496 | 30454 ft | 401 kts | 167° |
| 2026-05-06 15:30 | 46.24059 | 10.68973 | 29748 ft | 399 kts | 167° |
| 2026-05-06 15:30 | 46.21473 | 10.70449 | 28958 ft | 398 kts | 167° |
| 2026-05-06 15:30 | 46.18898 | 10.71916 | 28309 ft | 404 kts | 167° |
| 2026-05-06 15:30 | 46.16268 | 10.73408 | 27723 ft | 404 kts | 166° |
| 2026-05-06 15:31 | 46.13670 | 10.74892 | 27129 ft | 399 kts | 166° |
| 2026-05-06 15:31 | 46.11100 | 10.76357 | 26515 ft | 395 kts | 166° |
| 2026-05-06 15:31 | 46.08558 | 10.77802 | 25867 ft | 391 kts | 166° |
| 2026-05-06 15:32 | 46.03554 | 10.80643 | 24746 ft | 384 kts | 166° |
| 2026-05-06 15:32 | 46.01070 | 10.82048 | 24153 ft | 381 kts | 165° |
| 2026-05-06 15:32 | 45.98613 | 10.83438 | 23555 ft | 378 kts | 165° |
| 2026-05-06 15:32 | 45.96150 | 10.84827 | 22971 ft | 380 kts | 165° |
| 2026-05-06 15:33 | 45.93754 | 10.86183 | 22517 ft | 369 kts | 165° |
| 2026-05-06 15:33 | 45.91406 | 10.87512 | 22218 ft | 356 kts | 165° |
| 2026-05-06 15:33 | 45.89111 | 10.88810 | 21807 ft | 346 kts | 165° |
| 2026-05-06 15:33 | 45.86913 | 10.90046 | 21250 ft | 343 kts | 164° |
| 2026-05-06 15:34 | 45.84659 | 10.91310 | 20935 ft | 343 kts | 165° |
| 2026-05-06 15:34 | 45.82443 | 10.92555 | 20639 ft | 338 kts | 165° |
| 2026-05-06 15:34 | 45.80255 | 10.93784 | 19870 ft | 339 kts | 165° |
| 2026-05-06 15:34 | 45.78040 | 10.95022 | 18964 ft | 344 kts | 164° |
| 2026-05-06 15:35 | 45.75797 | 10.96318 | 18218 ft | 361 kts | 160° |
| 2026-05-06 15:35 | 45.73651 | 10.98430 | 17821 ft | 386 kts | 141° |
| 2026-05-06 15:35 | 45.72007 | 11.01504 | 17520 ft | 393 kts | 126° |
| 2026-05-06 15:35 | 45.70657 | 11.04846 | 17175 ft | 391 kts | 124° |
| 2026-05-06 15:36 | 45.69323 | 11.08199 | 16684 ft | 385 kts | 125° |
| 2026-05-06 15:36 | 45.67969 | 11.11533 | 16150 ft | 381 kts | 125° |
| 2026-05-06 15:36 | 45.66627 | 11.14779 | 15642 ft | 377 kts | 126° |
| 2026-05-06 15:36 | 45.65764 | 11.16852 | 15333 ft | 375 kts | 125° |
| 2026-05-06 15:37 | 45.65227 | 11.18135 | 15133 ft | 374 kts | 126° |
| 2026-05-06 15:37 | 45.63914 | 11.21274 | 14631 ft | 371 kts | 125° |
| 2026-05-06 15:37 | 45.62594 | 11.24425 | 14130 ft | 368 kts | 125° |
| 2026-05-06 15:37 | 45.61281 | 11.27556 | 13637 ft | 366 kts | 125° |
| 2026-05-06 15:38 | 45.59979 | 11.30657 | 13101 ft | 362 kts | 125° |
| 2026-05-06 15:38 | 45.58693 | 11.33716 | 12610 ft | 358 kts | 125° |
| 2026-05-06 15:38 | 45.57417 | 11.36744 | 12124 ft | 354 kts | 125° |
| 2026-05-06 15:38 | 45.56154 | 11.39743 | 11653 ft | 350 kts | 125° |
| 2026-05-06 15:39 | 45.54903 | 11.42708 | 11194 ft | 346 kts | 125° |
| 2026-05-06 15:39 | 45.53685 | 11.45594 | 10927 ft | 333 kts | 125° |
| 2026-05-06 15:39 | 45.52523 | 11.48349 | 10850 ft | 315 kts | 126° |
| 2026-05-06 15:39 | 45.51762 | 11.50146 | 10847 ft | 312 kts | 126° |
| 2026-05-06 15:40 | 45.50645 | 11.52780 | 10857 ft | 308 kts | 126° |
| 2026-05-06 15:40 | 45.49574 | 11.55312 | 10801 ft | 289 kts | 126° |
| 2026-05-06 15:40 | 45.48559 | 11.57704 | 10443 ft | 284 kts | 126° |
| 2026-05-06 15:40 | 45.47509 | 11.60165 | 9787 ft | 290 kts | 126° |
| 2026-05-06 15:41 | 45.46465 | 11.62612 | 9154 ft | 293 kts | 126° |
| 2026-05-06 15:41 | 45.45414 | 11.65083 | 8779 ft | 290 kts | 126° |
| 2026-05-06 15:41 | 45.44741 | 11.66663 | 8560 ft | 288 kts | 126° |
| 2026-05-06 15:41 | 45.43709 | 11.69084 | 8232 ft | 284 kts | 126° |
| 2026-05-06 15:42 | 45.42694 | 11.71466 | 7911 ft | 279 kts | 126° |
| 2026-05-06 15:42 | 45.41697 | 11.73803 | 7541 ft | 273 kts | 126° |
| 2026-05-06 15:42 | 45.40850 | 11.76240 | 6994 ft | 280 kts | 113° |
| 2026-05-06 15:42 | 45.40268 | 11.78931 | 6345 ft | 288 kts | 110° |
| 2026-05-06 15:43 | 45.39710 | 11.81673 | 5852 ft | 287 kts | 110° |
| 2026-05-06 15:43 | 45.39151 | 11.84377 | 5471 ft | 282 kts | 110° |
| 2026-05-06 15:43 | 45.38595 | 11.87016 | 5153 ft | 277 kts | 110° |
| 2026-05-06 15:43 | 45.38033 | 11.89642 | 4970 ft | 278 kts | 110° |
| 2026-05-06 15:44 | 45.37468 | 11.92259 | 4902 ft | 273 kts | 110° |
| 2026-05-06 15:44 | 45.36910 | 11.94848 | 4333 ft | 276 kts | 109° |
| 2026-05-06 15:44 | 45.36350 | 11.97448 | 3917 ft | 272 kts | 109° |
| 2026-05-06 15:44 | 45.35801 | 11.99994 | 3581 ft | 266 kts | 109° |
| 2026-05-06 15:45 | 45.35261 | 12.02493 | 3237 ft | 263 kts | 109° |
| 2026-05-06 15:45 | 45.34728 | 12.04954 | 3001 ft | 255 kts | 108° |
| 2026-05-06 15:45 | 45.34225 | 12.07282 | 2949 ft | 238 kts | 108° |
| 2026-05-06 15:45 | 45.33747 | 12.09496 | 2951 ft | 232 kts | 108° |
| 2026-05-06 15:46 | 45.33492 | 12.11665 | 2946 ft | 215 kts | 92° |
| 2026-05-06 15:46 | 45.33834 | 12.13732 | 2955 ft | 221 kts | 61° |
| 2026-05-06 15:46 | 45.34796 | 12.15432 | 2985 ft | 223 kts | 44° |
| 2026-05-06 15:46 | 45.35956 | 12.16863 | 2984 ft | 222 kts | 40° |
| 2026-05-06 15:47 | 45.37160 | 12.18248 | 2983 ft | 222 kts | 40° |
| 2026-05-06 15:47 | 45.38352 | 12.19665 | 2883 ft | 222 kts | 42° |
| 2026-05-06 15:47 | 45.39512 | 12.21083 | 2648 ft | 214 kts | 43° |
| 2026-05-06 15:47 | 45.40593 | 12.22457 | 2419 ft | 204 kts | 44° |
| 2026-05-06 15:48 | 45.41633 | 12.23789 | 2125 ft | 198 kts | 44° |
| 2026-05-06 15:48 | 45.42641 | 12.25082 | 1862 ft | 190 kts | 44° |
| 2026-05-06 15:48 | 45.43589 | 12.26299 | 1616 ft | 178 kts | 44° |
| 2026-05-06 15:48 | 45.44490 | 12.27458 | 1360 ft | 171 kts | 45° |
| 2026-05-06 15:49 | 45.45358 | 12.28567 | 1086 ft | 163 kts | 45° |
| 2026-05-06 15:49 | 45.46164 | 12.29597 | 883 ft | 154 kts | 45° |
| 2026-05-06 15:49 | 45.46973 | 12.30636 | 685 ft | 156 kts | 44° |
| 2026-05-06 15:49 | 45.47782 | 12.31666 | 481 ft | 156 kts | 44° |
| 2026-05-06 15:50 | 45.48566 | 12.32677 | 277 ft | 153 kts | 44° |
| 2026-05-06 15:50 | 45.49358 | 12.33701 | 84 ft | 153 kts | 45° |
| 2026-05-06 15:50 | 45.50115 | 12.34681 | 21 ft | 133 kts | 40° |
| 2026-05-06 15:50 | 45.50581 | 12.35270 | 19 ft | 49 kts | 38° |
| 2026-05-06 15:51 | 45.50760 | 12.35416 | 22 ft | 20 kts | 17° |
| 2026-05-06 15:51 | 45.50849 | 12.35439 | 21 ft | 8 kts | 13° |
| 2026-05-06 15:51 | 45.50875 | 12.35447 | 21 ft | 0 kts | 12° |
| 2026-05-06 15:51 | 45.50911 | 12.35456 | 22 ft | 12 kts | 8° |
| 2026-05-06 15:52 | 45.50988 | 12.35402 | 23 ft | 14 kts | 268° |
| 2026-05-06 15:52 | 45.50966 | 12.35260 | 22 ft | 14 kts | 258° |
| 2026-05-06 15:52 | 45.50913 | 12.35146 | 22 ft | 12 kts | 221° |
| 2026-05-06 15:52 | 45.50846 | 12.35062 | 21 ft | 14 kts | 223° |
| 2026-05-06 15:53 | 45.50770 | 12.34966 | 21 ft | 15 kts | 223° |
| 2026-05-06 15:53 | 45.50685 | 12.34858 | 21 ft | 17 kts | 223° |
| 2026-05-06 15:53 | 45.50594 | 12.34737 | 21 ft | 19 kts | 224° |
| 2026-05-06 15:53 | 45.50500 | 12.34611 | 21 ft | 18 kts | 250° |
| 2026-05-06 15:54 | 45.50554 | 12.34473 | 21 ft | 17 kts | 313° |
| 2026-05-06 15:54 | 45.50612 | 12.34362 | 21 ft | 9 kts | 265° |
| 2026-05-06 15:54 | 45.50568 | 12.34325 | 23 ft | 7 kts | 217° |
| 2026-05-06 15:54 | 45.50556 | 12.34284 | 21 ft | 3 kts | 261° |
| 2026-05-06 15:55 | 45.50553 | 12.34250 | 21 ft | 4 kts | 267° |
| 2026-05-06 15:55 | 45.50551 | 12.34223 | 21 ft | 1 kts | 269° |
| 2026-05-06 15:55 | 45.50551 | 12.34222 | 21 ft | 0 kts | 269° |
| 2026-05-06 15:55 | 45.50551 | 12.34220 | 21 ft | 0 kts | 269° |